createdAt,value
2022-09-28T09:02:38.119Z,4.80
2022-09-28T09:03:37.680Z,4.80
2022-09-28T09:04:37.720Z,3.60
2022-09-28T09:05:39.427Z,4.30
2022-09-28T09:06:37.569Z,3.90
2022-09-28T09:07:37.390Z,3.20
2022-09-28T09:08:37.319Z,3.40
2022-09-28T09:09:37.243Z,2.90
2022-09-28T09:10:37.321Z,3.10
2022-09-28T09:11:37.123Z,3.10
2022-09-28T09:12:37.051Z,3.40
2022-09-28T09:13:36.960Z,3.10
2022-09-28T09:14:36.878Z,3.30
2022-09-28T09:15:36.839Z,3.20
2022-09-28T09:16:36.810Z,3.50
2022-09-28T09:17:36.660Z,3.50
2022-09-28T09:18:36.580Z,3.50
2022-09-28T09:19:36.494Z,3.30
2022-09-28T09:20:36.429Z,3.50
2022-09-28T09:21:36.354Z,3.20
2022-09-28T09:22:36.253Z,4.00
2022-09-28T09:23:36.183Z,13.20
2022-09-28T09:24:36.103Z,9.10
2022-09-28T09:25:38.499Z,4.10
2022-09-28T09:26:35.973Z,4.00
2022-09-28T09:27:35.873Z,3.50
2022-09-28T09:28:35.797Z,5.00
2022-09-28T09:29:35.725Z,5.50
2022-09-28T09:30:35.721Z,5.20
2022-09-28T09:31:35.575Z,7.20
2022-09-28T09:32:35.508Z,6.80
2022-09-28T09:33:35.416Z,5.40
2022-09-28T09:34:35.336Z,4.80
2022-09-28T09:35:35.266Z,6.50
2022-09-28T09:36:35.197Z,5.50
2022-09-28T09:37:35.097Z,3.40
2022-09-28T09:38:35.007Z,4.60
2022-09-28T09:39:34.937Z,2.80
2022-09-28T09:40:34.875Z,3.40
2022-09-28T09:41:34.792Z,5.40
2022-09-28T09:42:34.699Z,5.80
2022-09-28T09:43:34.618Z,3.90
2022-09-28T09:44:34.530Z,3.40
2022-09-28T09:45:34.449Z,3.40
2022-09-28T09:46:34.377Z,4.20
2022-09-28T09:47:34.787Z,3.50
2022-09-28T09:48:34.219Z,3.90
2022-09-28T09:49:34.141Z,6.80
2022-09-28T09:50:34.050Z,3.50
2022-09-28T09:51:34.000Z,5.80
2022-09-28T09:53:37.583Z,10.10
2022-09-28T09:54:33.753Z,3.30
2022-09-28T09:55:33.661Z,3.60
2022-09-28T09:56:33.601Z,2.70
2022-09-28T09:57:33.633Z,3.10
2022-09-28T09:58:33.412Z,3.70
2022-09-28T09:59:33.332Z,10.20
2022-09-28T10:00:33.261Z,3.10
2022-09-28T10:01:33.264Z,2.20
2022-09-28T10:02:33.127Z,2.40
2022-09-28T10:03:33.024Z,2.60
2022-09-28T10:04:32.925Z,2.30
2022-09-28T10:05:32.854Z,4.80
2022-09-28T10:06:32.815Z,7.00
2022-09-28T10:07:32.665Z,5.40
2022-09-28T10:08:32.576Z,4.10
2022-09-28T10:09:32.504Z,8.40
2022-09-28T10:10:32.406Z,2.60
2022-09-28T10:11:32.342Z,2.80
2022-09-28T10:12:32.228Z,4.70
2022-09-28T10:13:32.147Z,3.40
2022-09-28T10:14:32.054Z,5.00
2022-09-28T10:15:31.977Z,6.60
2022-09-28T10:16:31.942Z,4.90
2022-09-28T10:17:31.807Z,6.70
2022-09-28T10:18:31.719Z,3.10
2022-09-28T10:19:31.639Z,8.80
2022-09-28T10:20:31.542Z,9.90
2022-09-28T10:21:31.460Z,6.70
2022-09-28T10:22:31.381Z,5.20
2022-09-28T10:23:31.290Z,3.10
2022-09-28T10:24:31.212Z,3.30
2022-09-28T10:25:31.130Z,3.80
2022-09-28T10:26:31.053Z,5.00
2022-09-28T10:27:30.971Z,3.20
2022-09-28T10:28:30.870Z,2.80
2022-09-28T10:29:30.791Z,3.50
2022-09-28T10:30:30.760Z,3.50
2022-09-28T10:31:30.651Z,3.60
2022-09-28T10:32:30.570Z,3.10
2022-09-28T10:33:30.471Z,7.70
2022-09-28T10:34:30.388Z,5.40
2022-09-28T10:35:30.312Z,4.40
2022-09-28T10:36:30.222Z,4.00
2022-09-28T10:37:30.171Z,2.30
2022-09-28T10:38:30.064Z,3.90
2022-09-28T10:39:29.993Z,3.50
2022-09-28T10:40:29.998Z,2.50
2022-09-28T10:41:29.844Z,3.10
2022-09-28T10:42:29.769Z,3.70
2022-09-28T10:43:29.685Z,5.40
2022-09-28T10:44:29.604Z,4.60
2022-09-28T10:45:29.548Z,4.10
2022-09-28T10:46:29.504Z,4.10
2022-09-28T10:47:29.396Z,5.50
2022-09-28T10:48:29.295Z,4.50
2022-09-28T10:49:29.226Z,3.60
2022-09-28T10:50:29.149Z,3.40
2022-09-28T10:51:29.067Z,3.00
2022-09-28T10:52:28.968Z,2.90
2022-09-28T10:53:28.897Z,3.60
2022-09-28T10:54:28.808Z,2.90
2022-09-28T10:55:28.727Z,3.80
2022-09-28T10:56:28.637Z,4.50
2022-09-28T10:57:28.550Z,7.00
2022-09-28T10:58:28.469Z,4.20
2022-09-28T10:59:28.393Z,3.60
2022-09-28T11:00:28.299Z,2.70
2022-09-28T11:01:28.306Z,3.70
2022-09-28T11:02:30.358Z,3.30
2022-09-28T11:03:29.058Z,3.50
2022-09-28T11:04:27.969Z,4.00
2022-09-28T11:05:27.905Z,3.20
2022-09-28T11:06:27.791Z,5.10
2022-09-28T11:07:27.708Z,3.50
2022-09-28T11:08:27.639Z,3.90
2022-09-28T11:09:30.510Z,3.90
2022-09-28T11:10:27.453Z,4.00
2022-09-28T11:11:27.381Z,5.20
2022-09-28T11:12:27.283Z,5.40
2022-09-28T11:13:27.209Z,5.40
2022-09-28T11:14:27.119Z,4.40
2022-09-28T11:15:27.033Z,5.10
2022-09-28T11:16:26.997Z,4.20
2022-09-28T11:17:26.853Z,4.40
2022-09-28T11:18:26.783Z,8.10
2022-09-28T11:19:26.674Z,33.60
2022-09-28T11:20:28.170Z,35.20
2022-09-28T11:21:26.504Z,20.90
2022-09-28T11:22:26.406Z,6.70
2022-09-28T11:23:26.347Z,4.90
2022-09-28T11:24:26.743Z,5.10
2022-09-28T11:25:26.148Z,5.10
2022-09-28T11:26:26.065Z,4.80
2022-09-28T11:27:25.976Z,3.20
2022-09-28T11:28:25.907Z,4.20
2022-09-28T11:29:25.807Z,3.50
2022-09-28T11:30:25.795Z,3.60
2022-09-28T11:31:25.637Z,4.40
2022-09-28T11:32:25.561Z,4.10
2022-09-28T11:33:25.480Z,4.30
2022-09-28T11:34:36.483Z,5.10
2022-09-28T11:35:26.409Z,5.50
2022-09-28T11:36:25.226Z,6.10
2022-09-28T11:37:25.159Z,5.80
2022-09-28T11:38:25.059Z,4.50
2022-09-28T11:39:24.990Z,4.60
2022-09-28T11:40:24.923Z,5.50
2022-09-28T11:41:24.808Z,4.20
2022-09-28T11:42:24.712Z,4.20
2022-09-28T11:43:24.698Z,4.00
2022-09-28T11:44:27.035Z,3.40
2022-09-28T11:45:25.481Z,3.80
2022-09-28T11:46:24.402Z,3.40
2022-09-28T11:47:24.291Z,4.00
2022-09-28T11:48:24.219Z,3.80
2022-09-28T11:49:24.342Z,4.60
2022-09-28T11:50:24.675Z,3.80
2022-09-28T11:51:23.974Z,3.50
2022-09-28T11:52:23.893Z,4.40
2022-09-28T11:53:23.804Z,3.70
2022-09-28T11:54:23.811Z,4.10
2022-09-28T11:55:23.634Z,4.10
2022-09-28T11:56:23.544Z,3.50
2022-09-28T11:57:23.474Z,3.70
2022-09-28T11:58:23.374Z,4.90
2022-09-28T11:59:23.305Z,4.70
2022-09-28T12:00:23.198Z,4.10
2022-09-28T12:01:23.105Z,3.80
2022-09-28T12:02:23.176Z,4.00
2022-09-28T12:03:23.080Z,3.60
2022-09-28T12:04:22.867Z,3.70
2022-09-28T12:05:22.764Z,3.90
2022-09-28T12:06:22.677Z,3.30
2022-09-28T12:07:22.575Z,3.70
2022-09-28T12:08:22.509Z,3.50
2022-09-28T12:09:22.394Z,4.00
2022-09-28T12:10:22.320Z,3.30
2022-09-28T12:11:22.239Z,3.40
2022-09-28T12:12:22.130Z,2.80
2022-09-28T12:13:22.029Z,3.10
2022-09-28T12:14:21.950Z,3.10
2022-09-28T12:15:21.861Z,3.30
2022-09-28T12:16:45.718Z,2.90
2022-09-28T12:17:22.715Z,3.40
2022-09-28T12:18:21.590Z,3.10
2022-09-28T12:19:21.489Z,2.70
2022-09-28T12:20:21.401Z,3.50
2022-09-28T12:21:21.302Z,2.70
2022-09-28T12:22:21.211Z,2.30
2022-09-28T12:23:21.112Z,2.30
2022-09-28T12:24:21.051Z,2.60
2022-09-28T12:25:20.965Z,2.50
2022-09-28T12:26:20.872Z,3.10
2022-09-28T12:27:20.763Z,2.60
2022-09-28T12:28:20.683Z,2.60
2022-09-28T12:29:20.604Z,3.00
2022-09-28T12:30:20.522Z,2.60
2022-09-28T12:31:20.509Z,2.50
2022-09-28T12:32:20.349Z,2.50
2022-09-28T12:33:20.248Z,2.70
2022-09-28T12:34:20.166Z,3.30
2022-09-28T12:35:20.095Z,3.80
2022-09-28T12:36:20.007Z,3.40
2022-09-28T12:37:19.905Z,2.50
2022-09-28T12:38:19.827Z,3.50
2022-09-28T12:39:30.777Z,3.70
2022-09-28T12:40:20.779Z,4.30
2022-09-28T12:41:19.574Z,3.80
2022-09-28T12:42:19.511Z,3.10
2022-09-28T12:43:19.411Z,4.40
2022-09-28T12:44:19.328Z,4.60
2022-09-28T12:45:19.258Z,4.50
2022-09-28T12:46:19.255Z,3.90
2022-09-28T12:47:19.072Z,4.60
2022-09-28T12:48:18.981Z,4.70
2022-09-28T12:50:38.158Z,5.40
2022-09-28T12:51:19.740Z,6.10
2022-09-28T12:52:18.639Z,4.90
2022-09-28T12:53:18.560Z,3.80
2022-09-28T12:54:18.556Z,4.60
2022-09-28T12:55:18.401Z,5.90
2022-09-28T12:56:20.904Z,5.10
2022-09-28T12:57:18.234Z,6.00
2022-09-28T12:58:18.151Z,4.70
2022-09-28T12:59:18.183Z,6.20
2022-09-28T13:00:18.002Z,6.60
2022-09-28T13:01:17.971Z,4.30
2022-09-28T13:02:17.858Z,4.40
2022-09-28T13:03:17.740Z,3.60
2022-09-28T13:04:17.661Z,4.00
2022-09-28T13:05:17.584Z,4.80
2022-09-28T13:06:17.494Z,3.60
2022-09-28T13:07:17.391Z,3.60
2022-09-28T13:08:17.314Z,4.00
2022-09-28T13:09:17.239Z,3.00
2022-09-28T13:10:17.135Z,3.30
2022-09-28T13:11:17.076Z,3.90
2022-09-28T13:12:16.960Z,3.70
2022-09-28T13:13:16.875Z,3.30
2022-09-28T13:14:16.787Z,3.80
2022-09-28T13:15:16.686Z,3.50
2022-09-28T13:16:16.641Z,3.60
2022-09-28T13:17:16.508Z,3.60
2022-09-28T13:18:16.426Z,2.90
2022-09-28T13:19:16.435Z,3.00
2022-09-28T13:20:16.259Z,2.70
2022-09-28T13:21:16.176Z,4.00
2022-09-28T13:22:16.069Z,4.00
2022-09-28T13:23:15.995Z,4.30
2022-09-28T13:24:31.632Z,3.80
2022-09-28T13:25:16.801Z,3.50
2022-09-28T13:26:15.729Z,3.60
2022-09-28T13:27:15.620Z,3.30
2022-09-28T13:28:15.553Z,2.90
2022-09-28T13:29:15.521Z,3.00
2022-09-28T13:30:15.380Z,2.60
2022-09-28T13:31:15.308Z,3.30
2022-09-28T13:32:15.222Z,3.70
2022-09-28T13:33:15.118Z,3.90
2022-09-28T13:34:15.054Z,4.30
2022-09-28T13:35:14.944Z,4.40
2022-09-28T13:36:14.880Z,4.40
2022-09-28T13:37:14.780Z,4.30
2022-09-28T13:38:14.703Z,4.40
2022-09-28T13:39:14.593Z,4.40
2022-09-28T13:40:14.504Z,3.70
2022-09-28T13:41:14.435Z,4.90
2022-09-28T13:42:14.338Z,3.80
2022-09-28T13:43:18.876Z,4.00
2022-09-28T13:44:15.134Z,3.60
2022-09-28T13:45:14.054Z,3.20
2022-09-28T13:46:14.054Z,2.80
2022-09-28T13:47:16.044Z,5.00
2022-09-28T13:48:13.796Z,3.50
2022-09-28T13:49:13.693Z,3.60
2022-09-28T13:50:13.621Z,3.30
2022-09-28T13:51:13.517Z,2.80
2022-09-28T13:52:13.437Z,2.70
2022-09-28T13:53:13.326Z,2.90
2022-09-28T13:54:13.237Z,2.40
2022-09-28T13:55:13.154Z,2.70
2022-09-28T13:56:13.058Z,2.40
2022-09-28T13:57:12.977Z,2.60
2022-09-28T13:58:12.869Z,2.70
2022-09-28T13:59:12.768Z,2.20
2022-09-28T14:00:12.691Z,2.40
2022-09-28T14:01:12.646Z,2.10
2022-09-28T14:02:12.603Z,2.40
2022-09-28T14:03:12.410Z,2.80
2022-09-28T14:04:12.310Z,3.00
2022-09-28T14:05:12.270Z,2.40
2022-09-28T14:06:12.161Z,3.10
2022-09-28T14:07:12.028Z,2.40
2022-09-28T14:08:11.962Z,2.60
2022-09-28T14:09:11.852Z,2.40
2022-09-28T14:10:11.761Z,2.90
2022-09-28T14:11:11.674Z,2.70
2022-09-28T14:12:11.592Z,2.60
2022-09-28T14:13:11.502Z,3.00
2022-09-28T14:14:11.400Z,3.30
2022-09-28T14:15:11.301Z,3.10
2022-09-28T14:16:11.282Z,3.30
2022-09-28T14:17:11.132Z,3.00
2022-09-28T14:18:11.052Z,3.10
2022-09-28T14:19:11.060Z,3.10
2022-09-28T14:20:10.864Z,3.50
2022-09-28T14:21:10.765Z,3.50
2022-09-28T14:22:10.675Z,3.40
2022-09-28T14:23:10.583Z,3.50
2022-09-28T14:24:10.487Z,3.60
2022-09-28T14:25:10.417Z,3.60
2022-09-28T14:26:10.336Z,3.50
2022-09-28T14:27:10.236Z,3.90
2022-09-28T14:28:10.195Z,3.80
2022-09-28T14:29:10.299Z,3.60
2022-09-28T14:30:10.067Z,2.90
2022-09-28T14:31:09.947Z,2.50
2022-09-28T14:32:09.797Z,2.90
2022-09-28T14:33:09.726Z,2.60
2022-09-28T14:34:09.638Z,3.10
2022-09-28T14:35:09.527Z,2.90
2022-09-28T14:36:09.450Z,2.90
2022-09-28T14:37:09.350Z,2.60
2022-09-28T14:38:09.279Z,3.30
2022-09-28T14:39:09.190Z,2.70
2022-09-28T14:40:09.175Z,2.40
2022-09-28T14:41:09.052Z,2.50
2022-09-28T14:42:08.931Z,2.80
2022-09-28T14:43:08.831Z,2.50
2022-09-28T14:44:08.761Z,2.50
2022-09-28T14:45:08.671Z,2.30
2022-09-28T14:46:08.600Z,2.70
2022-09-28T14:47:08.489Z,2.60
2022-09-28T14:48:08.402Z,2.50
2022-09-28T14:49:08.312Z,2.70
2022-09-28T14:50:11.391Z,2.20
2022-09-28T14:51:09.144Z,3.10
2022-09-28T14:52:08.053Z,2.60
2022-09-28T14:53:07.975Z,3.40
2022-09-28T14:54:07.952Z,2.60
2022-09-28T14:55:07.804Z,2.30
2022-09-28T14:56:07.734Z,2.20
2022-09-28T14:57:07.682Z,2.30
2022-09-28T14:58:07.575Z,2.50
2022-09-28T14:59:07.489Z,2.20
2022-09-28T15:00:07.501Z,2.50
2022-09-28T15:01:07.316Z,2.40
2022-09-28T15:02:07.246Z,2.20
2022-09-28T15:03:12.036Z,2.50
2022-09-28T15:04:08.102Z,2.30
2022-09-28T15:05:07.231Z,3.10
2022-09-28T15:06:06.921Z,3.70
2022-09-28T15:07:06.825Z,4.50
2022-09-28T15:08:06.748Z,5.80
2022-09-28T15:09:06.635Z,6.70
2022-09-28T15:10:06.624Z,5.10
2022-09-28T15:11:06.468Z,4.90
2022-09-28T15:12:06.388Z,3.70
2022-09-28T15:13:06.289Z,4.20
2022-09-28T15:14:06.211Z,3.90
2022-09-28T15:15:06.130Z,3.50
2022-09-28T15:16:06.057Z,3.40
2022-09-28T15:17:05.950Z,2.80
2022-09-28T15:18:05.878Z,3.20
2022-09-28T15:19:05.769Z,2.70
2022-09-28T15:20:05.711Z,2.50
2022-09-28T15:21:05.612Z,2.40
2022-09-28T15:22:05.541Z,2.40
2022-09-28T15:23:05.441Z,2.90
2022-09-28T15:24:05.361Z,2.60
2022-09-28T15:25:05.302Z,2.40
2022-09-28T15:26:05.192Z,2.70
2022-09-28T15:27:05.110Z,2.30
2022-09-28T15:28:05.043Z,2.50
2022-09-28T15:29:04.940Z,2.50
2022-09-28T15:30:04.868Z,2.60
2022-09-28T15:31:04.937Z,2.60
2022-09-28T15:32:04.722Z,3.50
2022-09-28T15:33:04.604Z,2.70
2022-09-28T15:34:04.525Z,2.60
2022-09-28T15:35:04.445Z,2.80
2022-09-28T15:36:04.346Z,2.60
2022-09-28T15:37:04.267Z,2.10
2022-09-28T15:38:04.185Z,2.00
2022-09-28T15:39:04.096Z,1.90
2022-09-28T15:40:04.015Z,2.30
2022-09-28T15:41:03.980Z,2.40
2022-09-28T15:42:03.847Z,2.40
2022-09-28T15:43:03.749Z,2.80
2022-09-28T15:44:03.666Z,2.70
2022-09-28T15:45:03.605Z,3.50
2022-09-28T15:46:03.581Z,3.30
2022-09-28T15:47:03.434Z,3.60
2022-09-28T15:48:03.338Z,3.30
2022-09-28T15:49:03.247Z,2.90
2022-09-28T15:50:03.211Z,3.30
2022-09-28T15:51:03.100Z,3.40
2022-09-28T15:52:03.011Z,2.90
2022-09-28T15:53:02.930Z,2.80
2022-09-28T15:54:02.860Z,2.90
2022-09-28T15:55:02.750Z,3.10
2022-09-28T15:56:02.700Z,3.20
2022-09-28T15:57:02.758Z,3.00
2022-09-28T15:58:02.510Z,3.40
2022-09-28T15:59:02.429Z,7.90
2022-09-28T16:00:02.351Z,10.30
2022-09-28T16:01:02.337Z,8.40
2022-09-28T16:02:06.268Z,2.90
2022-09-28T16:03:03.195Z,4.90
2022-09-28T16:04:02.003Z,7.50
2022-09-28T16:06:33.286Z,3.70
2022-09-28T16:07:33.226Z,3.50
2022-09-28T16:08:33.161Z,2.80
2022-09-28T16:09:36.096Z,2.60
2022-09-28T16:10:34.097Z,2.80
2022-09-28T16:11:33.025Z,2.50
2022-09-28T16:12:32.977Z,2.70
2022-09-28T16:13:32.936Z,2.60
2022-09-28T16:14:32.886Z,3.10
2022-09-28T16:15:32.883Z,2.70
2022-09-28T16:16:32.794Z,3.10
2022-09-28T16:17:32.737Z,2.50
2022-09-28T16:18:32.667Z,3.10
2022-09-28T16:19:32.626Z,4.60
2022-09-28T16:20:32.568Z,4.50
2022-09-28T16:21:32.538Z,4.10
2022-09-28T16:22:32.469Z,4.00
2022-09-28T16:23:32.418Z,3.20
2022-09-28T16:24:32.368Z,4.50
2022-09-28T16:25:32.330Z,5.80
2022-09-28T16:26:32.272Z,2.50
2022-09-28T16:27:32.220Z,2.10
2022-09-28T16:28:34.423Z,2.70
2022-09-28T16:29:32.127Z,4.40
2022-09-28T16:30:32.051Z,3.60
2022-09-28T16:31:32.147Z,4.80
2022-09-28T16:32:31.951Z,4.60
2022-09-28T16:33:31.892Z,4.70
2022-09-28T16:34:31.840Z,3.80
2022-09-28T16:35:31.793Z,3.30
2022-09-28T16:36:31.739Z,3.50
2022-09-28T16:37:31.715Z,5.10
2022-09-28T16:38:31.620Z,3.90
2022-09-28T16:39:31.554Z,4.80
2022-09-28T16:40:31.531Z,5.50
2022-09-28T16:41:31.464Z,5.20
2022-09-28T16:42:31.383Z,4.70
2022-09-28T16:43:31.329Z,5.50
2022-09-28T16:44:31.265Z,5.70
2022-09-28T16:45:31.215Z,5.30
2022-09-28T16:46:31.335Z,6.20
2022-09-28T16:47:31.145Z,5.10
2022-09-28T16:48:31.072Z,3.40
2022-09-28T16:49:31.035Z,3.80
2022-09-28T16:50:30.985Z,4.50
2022-09-28T16:51:30.954Z,3.00
2022-09-28T16:52:30.894Z,3.70
2022-09-28T16:53:30.836Z,3.90
2022-09-28T16:54:30.787Z,3.40
2022-09-28T16:55:39.959Z,4.40
2022-09-28T16:56:31.699Z,5.90
2022-09-28T16:57:30.648Z,6.20
2022-09-28T16:58:30.624Z,4.80
2022-09-28T16:59:30.548Z,3.50
2022-09-28T17:00:30.488Z,3.70
2022-09-28T17:01:30.497Z,4.00
2022-09-28T17:02:45.615Z,4.80
2022-09-28T17:03:31.434Z,4.10
2022-09-28T17:04:30.301Z,4.10
2022-09-28T17:05:30.260Z,4.50
2022-09-28T17:06:30.207Z,5.20
2022-09-28T17:07:30.181Z,5.70
2022-09-28T17:08:30.127Z,7.60
2022-09-28T17:09:30.091Z,7.60
2022-09-28T17:10:30.024Z,8.20
2022-09-28T17:11:29.989Z,6.80
2022-09-28T17:12:29.962Z,6.20
2022-09-28T17:13:29.902Z,5.80
2022-09-28T17:14:29.851Z,5.70
2022-09-28T17:15:29.869Z,4.70
2022-09-28T17:16:50.986Z,4.80
2022-09-28T17:17:30.734Z,5.10
2022-09-28T17:18:29.675Z,4.80
2022-09-28T17:19:29.624Z,4.80
2022-09-28T17:20:29.574Z,3.90
2022-09-28T17:21:29.535Z,4.20
2022-09-28T17:22:29.506Z,3.90
2022-09-28T17:23:29.467Z,3.90
2022-09-28T17:24:29.406Z,3.70
2022-09-28T17:25:29.365Z,3.50
2022-09-28T17:26:29.342Z,3.20
2022-09-28T17:27:29.276Z,3.00
2022-09-28T17:28:29.236Z,3.40
2022-09-28T17:29:29.186Z,2.90
2022-09-28T17:30:29.136Z,2.90
2022-09-28T17:31:29.172Z,2.90
2022-09-28T17:32:29.075Z,2.90
2022-09-28T17:33:29.027Z,3.70
2022-09-28T17:34:28.988Z,3.20
2022-09-28T17:35:28.936Z,3.30
2022-09-28T17:36:28.889Z,2.90
2022-09-28T17:37:28.858Z,3.00
2022-09-28T17:38:28.829Z,3.20
2022-09-28T17:39:28.788Z,3.10
2022-09-28T17:40:28.807Z,2.80
2022-09-28T17:41:28.709Z,2.90
2022-09-28T17:42:28.669Z,2.90
2022-09-28T17:43:28.651Z,2.90
2022-09-28T17:44:28.594Z,3.10
2022-09-28T17:45:28.595Z,2.80
2022-09-28T17:46:28.559Z,2.70
2022-09-28T17:47:32.172Z,2.80
2022-09-28T17:48:29.490Z,2.90
2022-09-28T17:49:28.401Z,2.70
2022-09-28T17:50:28.351Z,3.00
2022-09-28T17:51:28.321Z,2.60
2022-09-28T17:52:28.292Z,3.00
2022-09-28T17:53:28.261Z,4.50
2022-09-28T17:54:28.212Z,5.80
2022-09-28T17:55:28.202Z,8.20
2022-09-28T17:56:31.921Z,24.20
2022-09-28T17:57:28.144Z,18.60
2022-09-28T17:58:28.073Z,61.80
2022-09-28T17:59:28.057Z,36.80
2022-09-28T18:00:28.017Z,7.10
2022-09-28T18:01:28.038Z,6.40
2022-09-28T18:02:27.983Z,3.30
2022-09-28T18:03:27.914Z,3.30
2022-09-28T18:04:50.700Z,3.50
2022-09-28T18:05:28.865Z,3.00
2022-09-28T18:06:27.815Z,3.10
2022-09-28T18:07:27.775Z,3.00
2022-09-28T18:08:27.726Z,3.10
2022-09-28T18:09:27.732Z,3.10
2022-09-28T18:10:27.677Z,3.00
2022-09-28T18:11:27.648Z,3.80
2022-09-28T18:12:27.619Z,3.40
2022-09-28T18:13:27.580Z,3.00
2022-09-28T18:14:27.547Z,3.40
2022-09-28T18:15:27.543Z,2.90
2022-09-28T18:16:27.479Z,3.10
2022-09-28T18:17:27.435Z,3.30
2022-09-28T18:18:27.406Z,3.40
2022-09-28T18:19:31.759Z,3.10
2022-09-28T18:20:27.350Z,3.30
2022-09-28T18:21:27.311Z,3.10
2022-09-28T18:22:27.276Z,3.30
2022-09-28T18:23:27.250Z,3.50
2022-09-28T18:24:27.211Z,3.50
2022-09-28T18:25:27.182Z,4.00
2022-09-28T18:26:27.130Z,4.20
2022-09-28T18:27:27.108Z,3.70
2022-09-28T18:28:27.070Z,3.40
2022-09-28T18:29:31.012Z,3.90
2022-09-28T18:30:28.009Z,3.80
2022-09-28T18:31:27.017Z,4.00
2022-09-28T18:32:26.923Z,4.40
2022-09-28T18:33:47.885Z,4.70
2022-09-28T18:34:26.851Z,4.30
2022-09-28T18:35:26.822Z,3.50
2022-09-28T18:36:26.794Z,4.00
2022-09-28T18:37:26.733Z,4.30
2022-09-28T18:38:26.705Z,4.80
2022-09-28T18:39:26.675Z,4.50
2022-09-28T18:40:26.714Z,5.50
2022-09-28T18:41:26.605Z,5.40
2022-09-28T18:42:26.622Z,4.70
2022-09-28T18:43:26.544Z,4.60
2022-09-28T18:44:26.505Z,4.40
2022-09-28T18:45:26.493Z,3.80
2022-09-28T18:46:26.530Z,3.80
2022-09-28T18:47:26.411Z,3.40
2022-09-28T18:48:26.389Z,3.70
2022-09-28T18:49:26.353Z,3.90
2022-09-28T18:50:26.323Z,3.70
2022-09-28T18:51:26.285Z,3.70
2022-09-28T18:52:26.246Z,3.20
2022-09-28T18:53:26.206Z,3.70
2022-09-28T18:54:26.186Z,4.00
2022-09-28T18:55:26.154Z,3.80
2022-09-28T18:56:26.114Z,3.90
2022-09-28T18:57:26.074Z,3.60
2022-09-28T18:58:26.042Z,3.60
2022-09-28T18:59:26.017Z,3.70
2022-09-28T19:00:25.978Z,3.80
2022-09-28T19:01:30.074Z,3.50
2022-09-28T19:02:27.052Z,4.00
2022-09-28T19:03:25.968Z,3.70
2022-09-28T19:04:25.849Z,3.70
2022-09-28T19:05:25.830Z,3.70
2022-09-28T19:06:25.790Z,3.70
2022-09-28T19:07:25.740Z,3.80
2022-09-28T19:08:27.735Z,3.60
2022-09-28T19:09:25.669Z,3.70
2022-09-28T19:10:25.660Z,3.50
2022-09-28T19:11:25.623Z,3.60
2022-09-28T19:12:25.602Z,3.30
2022-09-28T19:13:25.563Z,3.90
2022-09-28T19:14:25.531Z,3.80
2022-09-28T19:15:25.501Z,3.50
2022-09-28T19:16:25.472Z,3.90
2022-09-28T19:17:25.431Z,4.00
2022-09-28T19:18:25.410Z,4.60
2022-09-28T19:19:25.392Z,4.40
2022-09-28T19:20:25.372Z,4.30
2022-09-28T19:21:25.323Z,4.50
2022-09-28T19:22:25.315Z,5.60
2022-09-28T19:23:25.290Z,5.00
2022-09-28T19:24:25.263Z,5.80
2022-09-28T19:25:25.241Z,6.20
2022-09-28T19:26:25.218Z,6.50
2022-09-28T19:27:25.186Z,7.00
2022-09-28T19:28:25.134Z,6.80
2022-09-28T19:29:25.104Z,7.00
2022-09-28T19:30:25.103Z,6.50
2022-09-28T19:31:25.036Z,6.80
2022-09-28T19:32:25.010Z,6.80
2022-09-28T19:33:24.976Z,7.70
2022-09-28T19:34:24.936Z,7.80
2022-09-28T19:35:24.916Z,8.10
2022-09-28T19:36:24.892Z,15.90
2022-09-28T19:37:24.846Z,9.40
2022-09-28T19:38:24.818Z,9.10
2022-09-28T19:39:24.777Z,9.40
2022-09-28T19:40:24.804Z,8.80
2022-09-28T19:41:24.740Z,8.00
2022-09-28T19:42:24.707Z,7.30
2022-09-28T19:43:24.675Z,7.20
2022-09-28T19:44:25.068Z,6.40
2022-09-28T19:45:24.638Z,6.20
2022-09-28T19:46:24.663Z,5.50
2022-09-28T19:47:24.559Z,6.00
2022-09-28T19:48:24.549Z,6.20
2022-09-28T19:49:24.501Z,5.90
2022-09-28T19:50:24.479Z,6.20
2022-09-28T19:51:24.480Z,5.80
2022-09-28T19:52:24.420Z,5.80
2022-09-28T19:53:24.400Z,5.90
2022-09-28T19:54:24.360Z,6.90
2022-09-28T19:55:24.339Z,6.50
2022-09-28T19:56:24.323Z,6.50
2022-09-28T19:57:24.302Z,6.80
2022-09-28T19:58:24.280Z,6.40
2022-09-28T19:59:24.252Z,6.70
2022-09-28T20:00:24.213Z,6.80
2022-09-28T20:01:24.294Z,7.40
2022-09-28T20:02:24.214Z,6.60
2022-09-28T20:03:24.162Z,7.00
2022-09-28T20:04:24.142Z,7.50
2022-09-28T20:05:24.126Z,6.90
2022-09-28T20:06:24.104Z,7.00
2022-09-28T20:07:24.083Z,7.00
2022-09-28T20:08:24.073Z,6.60
2022-09-28T20:09:24.061Z,7.60
2022-09-28T20:10:24.044Z,6.70
2022-09-28T20:11:24.054Z,6.50
2022-09-28T20:12:24.005Z,7.10
2022-09-28T20:13:23.995Z,7.00
2022-09-28T20:14:26.403Z,6.90
2022-09-28T20:15:24.957Z,7.00
2022-09-28T20:16:23.947Z,7.20
2022-09-28T20:17:23.916Z,7.10
2022-09-28T20:18:23.896Z,6.90
2022-09-28T20:19:23.886Z,7.00
2022-09-28T20:20:23.867Z,6.50
2022-09-28T20:21:26.078Z,7.00
2022-09-28T20:22:23.850Z,6.90
2022-09-28T20:23:23.836Z,7.80
2022-09-28T20:24:23.818Z,6.40
2022-09-28T20:25:23.808Z,6.80
2022-09-28T20:26:23.787Z,6.70
2022-09-28T20:27:26.334Z,7.30
2022-09-28T20:28:23.759Z,7.00
2022-09-28T20:29:23.746Z,6.90
2022-09-28T20:30:23.737Z,7.30
2022-09-28T20:31:23.769Z,6.90
2022-09-28T20:32:23.718Z,7.30
2022-09-28T20:33:28.887Z,6.40
2022-09-28T20:34:24.689Z,6.60
2022-09-28T20:35:32.755Z,7.20
2022-09-28T20:36:24.669Z,7.50
2022-09-28T20:37:23.669Z,7.40
2022-09-28T20:38:23.641Z,7.70
2022-09-28T20:39:23.640Z,8.00
2022-09-28T20:40:23.662Z,7.90
2022-09-28T20:41:23.622Z,7.70
2022-09-28T20:42:23.626Z,7.60
2022-09-28T20:43:23.601Z,7.50
2022-09-28T20:44:23.590Z,7.30
2022-09-28T20:45:23.570Z,8.10
2022-09-28T20:46:23.610Z,9.60
2022-09-28T20:47:23.552Z,8.60
2022-09-28T20:48:23.523Z,9.10
2022-09-28T20:49:23.522Z,8.60
2022-09-28T20:50:23.696Z,8.10
2022-09-28T20:51:23.482Z,8.00
2022-09-28T20:52:23.483Z,8.00
2022-09-28T20:53:23.463Z,7.50
2022-09-28T20:54:23.453Z,7.30
2022-09-28T20:55:23.443Z,7.60
2022-09-28T20:56:23.433Z,7.40
2022-09-28T20:57:23.433Z,7.00
2022-09-28T20:58:23.404Z,6.80
2022-09-28T20:59:23.405Z,6.60
2022-09-28T21:00:23.395Z,6.00
2022-09-28T21:01:23.409Z,6.50
2022-09-28T21:02:23.499Z,6.40
2022-09-28T21:03:23.366Z,6.20
2022-09-28T21:04:23.355Z,6.40
2022-09-28T21:05:23.355Z,6.00
2022-09-28T21:06:23.346Z,6.40
2022-09-28T21:07:23.347Z,6.10
2022-09-28T21:08:23.335Z,6.40
2022-09-28T21:09:23.318Z,5.80
2022-09-28T21:10:23.304Z,6.40
2022-09-28T21:11:23.306Z,6.00
2022-09-28T21:12:23.289Z,5.60
2022-09-28T21:13:23.309Z,5.90
2022-09-28T21:14:23.269Z,5.80
2022-09-28T21:15:23.382Z,5.90
2022-09-28T21:16:23.259Z,5.70
2022-09-28T21:17:23.259Z,6.00
2022-09-28T21:18:23.247Z,6.30
2022-09-28T21:19:23.374Z,5.20
2022-09-28T21:20:23.219Z,5.50
2022-09-28T21:21:23.229Z,5.30
2022-09-28T21:22:23.211Z,4.90
2022-09-28T21:23:25.065Z,5.50
2022-09-28T21:24:23.211Z,5.80
2022-09-28T21:25:23.190Z,5.70
2022-09-28T21:26:23.183Z,5.50
2022-09-28T21:27:23.190Z,5.60
2022-09-28T21:28:23.181Z,6.20
2022-09-28T21:29:23.171Z,5.20
2022-09-28T21:30:23.172Z,5.60
2022-09-28T21:31:27.727Z,5.80
2022-09-28T21:32:24.151Z,5.50
2022-09-28T21:33:23.153Z,5.20
2022-09-28T21:34:23.142Z,5.90
2022-09-28T21:35:23.122Z,5.50
2022-09-28T21:36:23.122Z,5.20
2022-09-28T21:37:23.122Z,5.10
2022-09-28T21:38:23.113Z,5.40
2022-09-28T21:39:23.092Z,5.30
2022-09-28T21:40:23.127Z,5.40
2022-09-28T21:41:23.085Z,5.60
2022-09-28T21:42:23.073Z,5.50
2022-09-28T21:43:23.082Z,5.40
2022-09-28T21:44:23.064Z,5.50
2022-09-28T21:45:23.064Z,6.00
2022-09-28T21:46:23.115Z,5.70
2022-09-28T21:47:23.044Z,6.80
2022-09-28T21:48:23.045Z,6.30
2022-09-28T21:49:23.055Z,6.40
2022-09-28T21:50:23.025Z,6.80
2022-09-28T21:51:23.044Z,7.10
2022-09-28T21:52:23.018Z,6.60
2022-09-28T21:53:23.013Z,6.40
2022-09-28T21:54:23.017Z,6.20
2022-09-28T21:55:23.016Z,6.10
2022-09-28T21:56:22.997Z,6.10
2022-09-28T21:57:23.005Z,6.20
2022-09-28T21:58:22.997Z,5.90
2022-09-28T21:59:22.997Z,6.40
2022-09-28T22:00:22.976Z,6.40
2022-09-28T22:01:23.025Z,6.10
2022-09-28T22:02:23.004Z,5.70
2022-09-28T22:03:22.977Z,5.90
2022-09-28T22:04:22.989Z,5.90
2022-09-28T22:05:22.979Z,5.60
2022-09-28T22:06:22.969Z,5.80
2022-09-28T22:07:22.990Z,5.60
2022-09-28T22:08:22.970Z,5.80
2022-09-28T22:09:22.979Z,6.90
2022-09-28T22:10:22.962Z,7.20
2022-09-28T22:11:22.962Z,6.40
2022-09-28T22:12:22.961Z,6.60
2022-09-28T22:13:22.960Z,6.40
2022-09-28T22:14:22.970Z,6.70
2022-09-28T22:15:22.962Z,5.90
2022-09-28T22:16:23.016Z,6.70
2022-09-28T22:17:22.951Z,7.00
2022-09-28T22:18:22.940Z,6.20
2022-09-28T22:19:22.972Z,5.60
2022-09-28T22:20:22.932Z,6.10
2022-09-28T22:21:22.941Z,6.20
2022-09-28T22:22:25.204Z,6.60
2022-09-28T22:23:23.945Z,5.90